Terminal Aerodrome Forecast
Issued by NWS Memphis, TN

Home | Current Version | Previous Version | Text Only | Print | Product List | Glossary On
Versions: 1 2 3 4 5 6 7 8 9 10 11 12 13 14 15 16 17 18 19
000
FTUS44 KMEG 220500
TAFMKL
TAF
KMKL 220530Z 2206/2306 20005KT P6SM SKC
     FM221000 20003KT 4SM BR SCT005
     FM221400 23007KT P6SM SKC
     FM230100 20003KT P6SM SKC=

USA.gov is the U.S. government's official web portal to all federal, state and local government web resources and services.